Kezdőlap
METAR-TAF:

METAR-TAF

Repülőterek :

Heringsdorf, Németország

földrajzi szélesség: 53-53N, földrajzi hosszúság: 014-09E, magasság: 28 m

Jelenlegi meteorológiai megfigyelések

A jelentés 37 perccel ezelõtt készült, 02:50 UTC
Kelet-délkeleti szél 10 kt
Hőmérséklet 15°C
Páratartalom 72%
Légköri nyomás 1007 hPa
Látótávolság 10 km, vagy több

METAR: EDAH 150250Z AUTO 12010KT 9999 // NCD 15/10 Q1007

Idő: 05:27 (03:27 UTC)

Előrejelzés

A jelentés 10 órával és 27 perccel ezelõtt készült, 17:00 UTC
Az előrejelzés 14-én 18 óra UTC és 15-én 03 óra UTC között érvényes
Déli szél 5 kt
Látótávolság 10 km, vagy több
felhőtlen 1500 m magasságban, és nincs gomolyfelhõ

TAF: EDAH 141700Z 1418/1503 17005KT CAVOK

Meteorológiai megfigyelések és előrejelzések több, mint 4000 repülőtéren (METAR és TAF jelentéseket).

A térképen piros és sárga pontok jelzik az elérhető meteorológiai állomásokat.

Mozgassa az egeret a pont fölött, hogy megjelenjen az állomás neve.

Azután kattintson az időjárási megfigyelések és előrejelzések megtekintéséhez.

A térkép megváltoztatása: kattintson a fekete keresztel jelölt zöld gombra ráközelítéshez, a vonallal jelölt zöld gombra távolításhoz, vagy a zöld nyilakra a szomszédos térképek eléréséhez.


METAR-TAF: